sensor_id;sensor_type;location;lat;lon;timestamp;temperature;humidity
24158;DHT22;12316;50.904;4.200;2022-08-19T00:00:38;20.90;99.90
24158;DHT22;12316;50.904;4.200;2022-08-19T00:03:04;21.00;99.90
24158;DHT22;12316;50.904;4.200;2022-08-19T00:05:30;21.10;99.90
24158;DHT22;12316;50.904;4.200;2022-08-19T00:07:56;21.20;99.90
24158;DHT22;12316;50.904;4.200;2022-08-19T00:10:22;21.10;99.90
24158;DHT22;12316;50.904;4.200;2022-08-19T00:12:49;21.20;99.90
24158;DHT22;12316;50.904;4.200;2022-08-19T00:15:18;21.20;99.90
24158;DHT22;12316;50.904;4.200;2022-08-19T00:17:45;21.20;99.90
24158;DHT22;12316;50.904;4.200;2022-08-19T00:20:14;21.20;99.90
24158;DHT22;12316;50.904;4.200;2022-08-19T00:22:42;21.20;99.90
24158;DHT22;12316;50.904;4.200;2022-08-19T00:25:08;21.20;99.90
24158;DHT22;12316;50.904;4.200;2022-08-19T00:27:35;21.10;99.90
24158;DHT22;12316;50.904;4.200;2022-08-19T00:30:01;21.10;99.90
24158;DHT22;12316;50.904;4.200;2022-08-19T00:32:28;21.10;99.90
24158;DHT22;12316;50.904;4.200;2022-08-19T00:34:54;21.00;99.90
24158;DHT22;12316;50.904;4.200;2022-08-19T00:37:22;21.00;99.90
24158;DHT22;12316;50.904;4.200;2022-08-19T00:39:49;21.00;99.90
24158;DHT22;12316;50.904;4.200;2022-08-19T00:42:16;20.90;99.90
24158;DHT22;12316;50.904;4.200;2022-08-19T00:44:42;20.90;99.90
24158;DHT22;12316;50.904;4.200;2022-08-19T00:47:08;20.90;99.90
24158;DHT22;12316;50.904;4.200;2022-08-19T00:49:58;20.80;99.90
24158;DHT22;12316;50.904;4.200;2022-08-19T00:52:34;20.80;99.90
24158;DHT22;12316;50.904;4.200;2022-08-19T00:55:04;20.80;99.90
24158;DHT22;12316;50.904;4.200;2022-08-19T00:57:35;20.70;99.90
24158;DHT22;12316;50.904;4.200;2022-08-19T01:00:07;20.70;99.90
24158;DHT22;12316;50.904;4.200;2022-08-19T01:02:34;20.70;99.90
24158;DHT22;12316;50.904;4.200;2022-08-19T01:05:04;20.60;99.90
24158;DHT22;12316;50.904;4.200;2022-08-19T01:07:31;20.60;99.90
24158;DHT22;12316;50.904;4.200;2022-08-19T01:09:56;20.60;99.90
24158;DHT22;12316;50.904;4.200;2022-08-19T01:12:23;20.60;99.90
24158;DHT22;12316;50.904;4.200;2022-08-19T01:14:49;20.50;99.90
24158;DHT22;12316;50.904;4.200;2022-08-19T01:17:16;20.50;99.90
24158;DHT22;12316;50.904;4.200;2022-08-19T01:19:43;20.50;99.90
24158;DHT22;12316;50.904;4.200;2022-08-19T01:22:52;20.40;99.90
24158;DHT22;12316;50.904;4.200;2022-08-19T01:25:19;20.40;99.90
24158;DHT22;12316;50.904;4.200;2022-08-19T01:27:48;20.30;99.90
24158;DHT22;12316;50.904;4.200;2022-08-19T01:30:18;20.30;99.90
24158;DHT22;12316;50.904;4.200;2022-08-19T01:32:44;20.30;99.90
24158;DHT22;12316;50.904;4.200;2022-08-19T01:35:11;20.20;99.90
24158;DHT22;12316;50.904;4.200;2022-08-19T01:37:56;20.20;99.90
24158;DHT22;12316;50.904;4.200;2022-08-19T01:40:24;20.20;99.90
24158;DHT22;12316;50.904;4.200;2022-08-19T01:42:52;20.20;99.90
24158;DHT22;12316;50.904;4.200;2022-08-19T01:45:20;20.10;99.90
24158;DHT22;12316;50.904;4.200;2022-08-19T01:47:47;20.00;99.90
24158;DHT22;12316;50.904;4.200;2022-08-19T01:50:14;20.00;99.90
24158;DHT22;12316;50.904;4.200;2022-08-19T01:52:41;20.10;99.90
24158;DHT22;12316;50.904;4.200;2022-08-19T01:55:10;20.00;99.90
24158;DHT22;12316;50.904;4.200;2022-08-19T01:57:37;20.00;99.90
24158;DHT22;12316;50.904;4.200;2022-08-19T02:00:11;20.00;99.90
24158;DHT22;12316;50.904;4.200;2022-08-19T02:02:37;19.90;99.90
24158;DHT22;12316;50.904;4.200;2022-08-19T02:05:05;20.00;99.90
24158;DHT22;12316;50.904;4.200;2022-08-19T02:07:32;19.90;99.90
24158;DHT22;12316;50.904;4.200;2022-08-19T02:09:58;19.80;99.90
24158;DHT22;12316;50.904;4.200;2022-08-19T02:12:23;19.70;99.90
24158;DHT22;12316;50.904;4.200;2022-08-19T02:14:49;19.80;99.90
24158;DHT22;12316;50.904;4.200;2022-08-19T02:17:14;19.70;99.90
24158;DHT22;12316;50.904;4.200;2022-08-19T02:19:40;19.60;99.90
24158;DHT22;12316;50.904;4.200;2022-08-19T02:22:06;19.60;99.90
24158;DHT22;12316;50.904;4.200;2022-08-19T02:24:32;19.60;99.90
24158;DHT22;12316;50.904;4.200;2022-08-19T02:26:57;19.60;99.90
24158;DHT22;12316;50.904;4.200;2022-08-19T02:29:24;19.50;99.90
24158;DHT22;12316;50.904;4.200;2022-08-19T02:31:49;19.50;99.90
24158;DHT22;12316;50.904;4.200;2022-08-19T02:34:16;19.50;99.90
24158;DHT22;12316;50.904;4.200;2022-08-19T02:36:41;19.50;99.90
24158;DHT22;12316;50.904;4.200;2022-08-19T02:39:07;19.50;99.90
24158;DHT22;12316;50.904;4.200;2022-08-19T02:41:34;19.40;99.90
24158;DHT22;12316;50.904;4.200;2022-08-19T02:44:01;19.40;99.90
24158;DHT22;12316;50.904;4.200;2022-08-19T02:46:29;19.40;99.90
24158;DHT22;12316;50.904;4.200;2022-08-19T02:48:59;19.40;99.90
24158;DHT22;12316;50.904;4.200;2022-08-19T02:51:28;19.30;99.90
24158;DHT22;12316;50.904;4.200;2022-08-19T02:53:54;19.30;99.90
24158;DHT22;12316;50.904;4.200;2022-08-19T02:56:20;19.30;99.90
24158;DHT22;12316;50.904;4.200;2022-08-19T02:58:47;19.20;99.90
24158;DHT22;12316;50.904;4.200;2022-08-19T03:01:21;19.20;99.90
24158;DHT22;12316;50.904;4.200;2022-08-19T03:03:47;19.20;99.90
24158;DHT22;12316;50.904;4.200;2022-08-19T03:06:15;19.30;99.90
24158;DHT22;12316;50.904;4.200;2022-08-19T03:08:43;19.20;99.90
24158;DHT22;12316;50.904;4.200;2022-08-19T03:11:21;19.20;99.90
24158;DHT22;12316;50.904;4.200;2022-08-19T03:13:48;19.20;99.90
24158;DHT22;12316;50.904;4.200;2022-08-19T03:16:17;19.20;99.90
24158;DHT22;12316;50.904;4.200;2022-08-19T03:18:43;19.20;99.90
24158;DHT22;12316;50.904;4.200;2022-08-19T03:21:19;19.10;99.90
24158;DHT22;12316;50.904;4.200;2022-08-19T03:23:45;19.10;99.90
24158;DHT22;12316;50.904;4.200;2022-08-19T03:26:11;19.10;99.90
24158;DHT22;12316;50.904;4.200;2022-08-19T03:28:37;19.10;99.90
24158;DHT22;12316;50.904;4.200;2022-08-19T03:31:05;19.00;99.90
24158;DHT22;12316;50.904;4.200;2022-08-19T03:33:32;19.00;99.90
24158;DHT22;12316;50.904;4.200;2022-08-19T03:36:10;18.90;99.90
24158;DHT22;12316;50.904;4.200;2022-08-19T03:38:39;18.90;99.90
24158;DHT22;12316;50.904;4.200;2022-08-19T03:41:15;18.90;99.90
24158;DHT22;12316;50.904;4.200;2022-08-19T03:43:43;18.80;99.90
24158;DHT22;12316;50.904;4.200;2022-08-19T03:46:14;18.80;99.90
24158;DHT22;12316;50.904;4.200;2022-08-19T03:48:41;18.80;99.90
24158;DHT22;12316;50.904;4.200;2022-08-19T03:51:18;18.80;99.90
24158;DHT22;12316;50.904;4.200;2022-08-19T03:53:45;18.80;99.90
24158;DHT22;12316;50.904;4.200;2022-08-19T03:56:11;18.80;99.90
24158;DHT22;12316;50.904;4.200;2022-08-19T03:58:38;18.70;99.90
24158;DHT22;12316;50.904;4.200;2022-08-19T04:01:11;18.70;99.90
24158;DHT22;12316;50.904;4.200;2022-08-19T04:03:38;18.70;99.90
24158;DHT22;12316;50.904;4.200;2022-08-19T04:06:22;18.70;99.90
24158;DHT22;12316;50.904;4.200;2022-08-19T04:08:50;18.60;99.90
24158;DHT22;12316;50.904;4.200;2022-08-19T04:11:18;18.60;99.90
24158;DHT22;12316;50.904;4.200;2022-08-19T04:13:45;18.60;99.90
24158;DHT22;12316;50.904;4.200;2022-08-19T04:16:11;18.50;99.90
24158;DHT22;12316;50.904;4.200;2022-08-19T04:18:38;18.50;99.90
24158;DHT22;12316;50.904;4.200;2022-08-19T04:21:04;18.50;99.90
24158;DHT22;12316;50.904;4.200;2022-08-19T04:23:32;18.50;99.90
24158;DHT22;12316;50.904;4.200;2022-08-19T04:25:58;18.50;99.90
24158;DHT22;12316;50.904;4.200;2022-08-19T04:28:25;18.60;99.90
24158;DHT22;12316;50.904;4.200;2022-08-19T04:30:52;18.60;99.90
24158;DHT22;12316;50.904;4.200;2022-08-19T04:33:21;18.50;99.90
24158;DHT22;12316;50.904;4.200;2022-08-19T04:35:49;18.50;99.90
24158;DHT22;12316;50.904;4.200;2022-08-19T04:38:17;18.50;99.90
24158;DHT22;12316;50.904;4.200;2022-08-19T04:40:48;18.40;99.90
24158;DHT22;12316;50.904;4.200;2022-08-19T04:43:34;18.40;99.90
24158;DHT22;12316;50.904;4.200;2022-08-19T04:46:09;18.40;99.90
24158;DHT22;12316;50.904;4.200;2022-08-19T04:48:36;18.40;99.90
24158;DHT22;12316;50.904;4.200;2022-08-19T04:51:06;18.40;99.90
24158;DHT22;12316;50.904;4.200;2022-08-19T04:53:34;18.40;99.90
24158;DHT22;12316;50.904;4.200;2022-08-19T04:56:05;18.40;99.90
24158;DHT22;12316;50.904;4.200;2022-08-19T04:58:32;18.40;99.90
24158;DHT22;12316;50.904;4.200;2022-08-19T05:00:58;18.40;99.90
24158;DHT22;12316;50.904;4.200;2022-08-19T05:03:26;18.40;99.90
24158;DHT22;12316;50.904;4.200;2022-08-19T05:05:52;18.40;99.90
24158;DHT22;12316;50.904;4.200;2022-08-19T05:08:20;18.40;99.90
24158;DHT22;12316;50.904;4.200;2022-08-19T05:10:48;18.40;99.90
24158;DHT22;12316;50.904;4.200;2022-08-19T05:13:17;18.40;99.90
24158;DHT22;12316;50.904;4.200;2022-08-19T05:15:43;18.40;99.90
24158;DHT22;12316;50.904;4.200;2022-08-19T05:18:09;18.40;99.90
24158;DHT22;12316;50.904;4.200;2022-08-19T05:20:55;18.50;99.90
24158;DHT22;12316;50.904;4.200;2022-08-19T05:23:39;18.60;99.90
24158;DHT22;12316;50.904;4.200;2022-08-19T05:26:06;18.80;99.90
24158;DHT22;12316;50.904;4.200;2022-08-19T05:28:31;18.90;99.90
24158;DHT22;12316;50.904;4.200;2022-08-19T05:30:57;19.00;99.90
24158;DHT22;12316;50.904;4.200;2022-08-19T05:33:23;19.10;99.90
24158;DHT22;12316;50.904;4.200;2022-08-19T05:35:49;19.30;99.90
24158;DHT22;12316;50.904;4.200;2022-08-19T05:38:16;19.60;99.90
24158;DHT22;12316;50.904;4.200;2022-08-19T05:40:42;19.70;99.90
24158;DHT22;12316;50.904;4.200;2022-08-19T05:43:12;19.90;99.90
24158;DHT22;12316;50.904;4.200;2022-08-19T05:45:41;20.00;99.90
24158;DHT22;12316;50.904;4.200;2022-08-19T05:48:08;20.10;99.90
24158;DHT22;12316;50.904;4.200;2022-08-19T05:50:37;20.20;99.90
24158;DHT22;12316;50.904;4.200;2022-08-19T05:53:03;20.20;99.90
24158;DHT22;12316;50.904;4.200;2022-08-19T05:55:29;20.40;99.90
24158;DHT22;12316;50.904;4.200;2022-08-19T05:57:54;20.50;99.90
24158;DHT22;12316;50.904;4.200;2022-08-19T06:00:20;20.60;99.90
24158;DHT22;12316;50.904;4.200;2022-08-19T06:02:45;20.70;99.90
24158;DHT22;12316;50.904;4.200;2022-08-19T06:05:11;20.80;99.90
24158;DHT22;12316;50.904;4.200;2022-08-19T06:07:38;20.90;99.90
24158;DHT22;12316;50.904;4.200;2022-08-19T06:10:05;20.90;99.90
24158;DHT22;12316;50.904;4.200;2022-08-19T06:12:32;21.00;99.90
24158;DHT22;12316;50.904;4.200;2022-08-19T06:15:07;21.00;99.90
24158;DHT22;12316;50.904;4.200;2022-08-19T06:17:33;21.20;99.90
24158;DHT22;12316;50.904;4.200;2022-08-19T06:20:01;21.50;99.90
24158;DHT22;12316;50.904;4.200;2022-08-19T06:22:27;21.90;99.90
24158;DHT22;12316;50.904;4.200;2022-08-19T06:24:54;22.10;99.90
24158;DHT22;12316;50.904;4.200;2022-08-19T06:27:21;22.20;99.90
24158;DHT22;12316;50.904;4.200;2022-08-19T06:29:47;22.30;99.90
24158;DHT22;12316;50.904;4.200;2022-08-19T06:32:15;22.30;99.90
24158;DHT22;12316;50.904;4.200;2022-08-19T06:34:42;22.30;99.90
24158;DHT22;12316;50.904;4.200;2022-08-19T06:37:07;22.30;99.90
24158;DHT22;12316;50.904;4.200;2022-08-19T06:39:36;22.30;99.90
24158;DHT22;12316;50.904;4.200;2022-08-19T06:42:04;22.20;99.90
24158;DHT22;12316;50.904;4.200;2022-08-19T06:44:39;22.10;99.90
24158;DHT22;12316;50.904;4.200;2022-08-19T06:47:07;22.10;99.90
24158;DHT22;12316;50.904;4.200;2022-08-19T06:49:33;22.20;99.90
24158;DHT22;12316;50.904;4.200;2022-08-19T06:52:00;22.30;99.90
24158;DHT22;12316;50.904;4.200;2022-08-19T06:54:27;22.50;99.90
24158;DHT22;12316;50.904;4.200;2022-08-19T06:56:55;22.60;99.90
24158;DHT22;12316;50.904;4.200;2022-08-19T06:59:24;22.70;99.90
24158;DHT22;12316;50.904;4.200;2022-08-19T07:01:55;22.70;99.90
24158;DHT22;12316;50.904;4.200;2022-08-19T07:04:23;22.80;99.90
24158;DHT22;12316;50.904;4.200;2022-08-19T07:06:57;22.90;99.90
24158;DHT22;12316;50.904;4.200;2022-08-19T07:09:23;23.10;99.90
24158;DHT22;12316;50.904;4.200;2022-08-19T07:11:50;23.10;99.90
24158;DHT22;12316;50.904;4.200;2022-08-19T07:14:19;23.10;99.90
24158;DHT22;12316;50.904;4.200;2022-08-19T07:16:46;23.10;99.90
24158;DHT22;12316;50.904;4.200;2022-08-19T07:19:12;23.20;99.90
24158;DHT22;12316;50.904;4.200;2022-08-19T07:21:38;23.20;99.90
24158;DHT22;12316;50.904;4.200;2022-08-19T07:24:04;23.20;99.90
24158;DHT22;12316;50.904;4.200;2022-08-19T07:26:32;23.40;99.90
24158;DHT22;12316;50.904;4.200;2022-08-19T07:28:58;23.50;99.90
24158;DHT22;12316;50.904;4.200;2022-08-19T07:31:27;23.70;99.90
24158;DHT22;12316;50.904;4.200;2022-08-19T07:33:54;23.80;99.90
24158;DHT22;12316;50.904;4.200;2022-08-19T07:36:26;23.90;99.90
24158;DHT22;12316;50.904;4.200;2022-08-19T07:38:56;23.90;99.90
24158;DHT22;12316;50.904;4.200;2022-08-19T07:41:23;24.00;99.90
24158;DHT22;12316;50.904;4.200;2022-08-19T07:43:49;24.00;99.90
24158;DHT22;12316;50.904;4.200;2022-08-19T07:46:16;24.10;99.90
24158;DHT22;12316;50.904;4.200;2022-08-19T07:48:43;24.20;99.90
24158;DHT22;12316;50.904;4.200;2022-08-19T07:51:14;24.10;99.90
24158;DHT22;12316;50.904;4.200;2022-08-19T07:53:40;24.20;99.90
24158;DHT22;12316;50.904;4.200;2022-08-19T07:56:06;24.30;99.90
24158;DHT22;12316;50.904;4.200;2022-08-19T07:58:35;24.30;99.90
24158;DHT22;12316;50.904;4.200;2022-08-19T08:01:03;24.40;99.90
24158;DHT22;12316;50.904;4.200;2022-08-19T08:03:29;24.40;99.90
24158;DHT22;12316;50.904;4.200;2022-08-19T08:06:14;24.30;99.90
24158;DHT22;12316;50.904;4.200;2022-08-19T08:09:01;24.20;99.90
24158;DHT22;12316;50.904;4.200;2022-08-19T08:14:29;24.20;99.90
24158;DHT22;12316;50.904;4.200;2022-08-19T08:16:55;24.10;99.90
24158;DHT22;12316;50.904;4.200;2022-08-19T08:19:23;24.20;99.90
24158;DHT22;12316;50.904;4.200;2022-08-19T08:21:50;24.20;99.90
24158;DHT22;12316;50.904;4.200;2022-08-19T08:24:17;24.20;99.90
24158;DHT22;12316;50.904;4.200;2022-08-19T08:26:43;24.30;99.90
24158;DHT22;12316;50.904;4.200;2022-08-19T08:29:12;24.30;99.90
24158;DHT22;12316;50.904;4.200;2022-08-19T08:31:40;24.20;99.90
24158;DHT22;12316;50.904;4.200;2022-08-19T08:34:06;24.30;99.90
24158;DHT22;12316;50.904;4.200;2022-08-19T08:36:32;24.20;99.90
24158;DHT22;12316;50.904;4.200;2022-08-19T08:38:59;24.30;99.90
24158;DHT22;12316;50.904;4.200;2022-08-19T08:41:42;24.20;99.90
24158;DHT22;12316;50.904;4.200;2022-08-19T08:44:20;24.20;99.90
24158;DHT22;12316;50.904;4.200;2022-08-19T08:46:55;24.20;99.90
24158;DHT22;12316;50.904;4.200;2022-08-19T08:52:06;24.20;99.90
24158;DHT22;12316;50.904;4.200;2022-08-19T08:54:54;24.20;99.90
24158;DHT22;12316;50.904;4.200;2022-08-19T08:57:30;24.30;99.90
24158;DHT22;12316;50.904;4.200;2022-08-19T09:00:00;24.40;99.90
24158;DHT22;12316;50.904;4.200;2022-08-19T09:02:29;24.30;99.90
24158;DHT22;12316;50.904;4.200;2022-08-19T09:04:55;24.40;99.90
24158;DHT22;12316;50.904;4.200;2022-08-19T09:10:14;24.80;99.90
24158;DHT22;12316;50.904;4.200;2022-08-19T09:13:07;25.00;99.90
24158;DHT22;12316;50.904;4.200;2022-08-19T09:15:40;25.10;99.90
24158;DHT22;12316;50.904;4.200;2022-08-19T09:18:08;25.30;99.90
24158;DHT22;12316;50.904;4.200;2022-08-19T09:20:34;25.40;99.90
24158;DHT22;12316;50.904;4.200;2022-08-19T09:23:00;25.40;99.90
24158;DHT22;12316;50.904;4.200;2022-08-19T09:25:26;25.50;99.90
24158;DHT22;12316;50.904;4.200;2022-08-19T09:27:52;25.60;99.90
24158;DHT22;12316;50.904;4.200;2022-08-19T09:30:33;25.60;99.90
24158;DHT22;12316;50.904;4.200;2022-08-19T09:33:00;25.50;99.90
24158;DHT22;12316;50.904;4.200;2022-08-19T09:35:28;25.50;99.90
24158;DHT22;12316;50.904;4.200;2022-08-19T09:37:55;25.30;99.90
24158;DHT22;12316;50.904;4.200;2022-08-19T09:40:22;25.30;99.90
24158;DHT22;12316;50.904;4.200;2022-08-19T09:42:47;25.20;99.90
24158;DHT22;12316;50.904;4.200;2022-08-19T09:45:19;25.10;99.90
24158;DHT22;12316;50.904;4.200;2022-08-19T09:47:47;25.10;99.90
24158;DHT22;12316;50.904;4.200;2022-08-19T09:50:13;25.10;99.90
24158;DHT22;12316;50.904;4.200;2022-08-19T09:52:39;25.30;99.90
24158;DHT22;12316;50.904;4.200;2022-08-19T09:55:09;25.40;99.90
24158;DHT22;12316;50.904;4.200;2022-08-19T09:57:35;25.40;99.90
24158;DHT22;12316;50.904;4.200;2022-08-19T10:00:05;25.40;99.90
24158;DHT22;12316;50.904;4.200;2022-08-19T10:02:31;25.40;99.90
24158;DHT22;12316;50.904;4.200;2022-08-19T10:04:57;25.50;99.90
24158;DHT22;12316;50.904;4.200;2022-08-19T10:07:42;25.50;99.90
24158;DHT22;12316;50.904;4.200;2022-08-19T10:10:08;25.50;99.90
24158;DHT22;12316;50.904;4.200;2022-08-19T10:12:35;25.50;99.90
24158;DHT22;12316;50.904;4.200;2022-08-19T10:15:02;25.50;99.90
24158;DHT22;12316;50.904;4.200;2022-08-19T10:17:29;25.60;99.90
24158;DHT22;12316;50.904;4.200;2022-08-19T10:19:54;25.60;99.90
24158;DHT22;12316;50.904;4.200;2022-08-19T10:22:20;25.60;99.90
24158;DHT22;12316;50.904;4.200;2022-08-19T10:24:47;25.70;99.90
24158;DHT22;12316;50.904;4.200;2022-08-19T10:27:13;25.80;99.90
24158;DHT22;12316;50.904;4.200;2022-08-19T10:29:39;25.70;99.90
24158;DHT22;12316;50.904;4.200;2022-08-19T10:32:06;25.70;99.90
24158;DHT22;12316;50.904;4.200;2022-08-19T10:34:34;25.50;99.90
24158;DHT22;12316;50.904;4.200;2022-08-19T10:37:02;25.50;99.90
24158;DHT22;12316;50.904;4.200;2022-08-19T10:39:34;25.20;99.90
24158;DHT22;12316;50.904;4.200;2022-08-19T10:42:05;25.00;99.90
24158;DHT22;12316;50.904;4.200;2022-08-19T10:44:32;25.00;99.90
24158;DHT22;12316;50.904;4.200;2022-08-19T10:46:57;25.00;99.90
24158;DHT22;12316;50.904;4.200;2022-08-19T10:49:24;25.10;99.90
24158;DHT22;12316;50.904;4.200;2022-08-19T10:51:50;25.30;99.90
24158;DHT22;12316;50.904;4.200;2022-08-19T10:54:42;25.50;99.90
24158;DHT22;12316;50.904;4.200;2022-08-19T10:57:30;25.80;99.90
24158;DHT22;12316;50.904;4.200;2022-08-19T10:59:56;25.80;99.90
24158;DHT22;12316;50.904;4.200;2022-08-19T11:02:22;25.80;99.90
24158;DHT22;12316;50.904;4.200;2022-08-19T11:04:48;25.90;99.90
24158;DHT22;12316;50.904;4.200;2022-08-19T11:07:15;25.80;99.90
24158;DHT22;12316;50.904;4.200;2022-08-19T11:09:42;25.70;99.90
24158;DHT22;12316;50.904;4.200;2022-08-19T11:12:08;25.60;99.90
24158;DHT22;12316;50.904;4.200;2022-08-19T11:14:35;25.50;99.90
24158;DHT22;12316;50.904;4.200;2022-08-19T11:17:02;25.40;99.90
24158;DHT22;12316;50.904;4.200;2022-08-19T11:19:28;25.40;99.90
24158;DHT22;12316;50.904;4.200;2022-08-19T11:21:54;25.60;99.90
24158;DHT22;12316;50.904;4.200;2022-08-19T11:24:23;25.80;99.90
24158;DHT22;12316;50.904;4.200;2022-08-19T11:26:51;26.00;99.90
24158;DHT22;12316;50.904;4.200;2022-08-19T11:29:20;26.40;99.90
24158;DHT22;12316;50.904;4.200;2022-08-19T11:31:48;26.70;99.90
24158;DHT22;12316;50.904;4.200;2022-08-19T11:34:20;27.00;99.90
24158;DHT22;12316;50.904;4.200;2022-08-19T11:36:48;27.30;99.90
24158;DHT22;12316;50.904;4.200;2022-08-19T11:39:16;27.60;99.90
24158;DHT22;12316;50.904;4.200;2022-08-19T11:41:42;28.00;99.90
24158;DHT22;12316;50.904;4.200;2022-08-19T11:44:10;28.40;99.90
24158;DHT22;12316;50.904;4.200;2022-08-19T11:46:37;28.60;99.20
24158;DHT22;12316;50.904;4.200;2022-08-19T11:49:04;28.70;98.30
24158;DHT22;12316;50.904;4.200;2022-08-19T11:51:31;28.70;97.80
24158;DHT22;12316;50.904;4.200;2022-08-19T11:53:58;28.80;97.60
24158;DHT22;12316;50.904;4.200;2022-08-19T11:56:25;28.90;97.20
24158;DHT22;12316;50.904;4.200;2022-08-19T11:58:52;28.70;97.10
24158;DHT22;12316;50.904;4.200;2022-08-19T12:01:20;28.80;96.90
24158;DHT22;12316;50.904;4.200;2022-08-19T12:03:48;28.60;97.10
24158;DHT22;12316;50.904;4.200;2022-08-19T12:06:17;28.60;97.00
24158;DHT22;12316;50.904;4.200;2022-08-19T12:08:44;28.50;96.80
24158;DHT22;12316;50.904;4.200;2022-08-19T12:11:11;28.40;96.70
24158;DHT22;12316;50.904;4.200;2022-08-19T12:13:38;28.20;96.90
24158;DHT22;12316;50.904;4.200;2022-08-19T12:16:16;28.00;97.20
24158;DHT22;12316;50.904;4.200;2022-08-19T12:18:42;27.90;97.70
24158;DHT22;12316;50.904;4.200;2022-08-19T12:21:25;28.10;97.70
24158;DHT22;12316;50.904;4.200;2022-08-19T12:23:53;28.20;97.30
24158;DHT22;12316;50.904;4.200;2022-08-19T12:26:20;28.30;96.50
24158;DHT22;12316;50.904;4.200;2022-08-19T12:28:46;28.20;96.30
24158;DHT22;12316;50.904;4.200;2022-08-19T12:31:12;28.40;96.70
24158;DHT22;12316;50.904;4.200;2022-08-19T12:33:39;28.50;96.30
24158;DHT22;12316;50.904;4.200;2022-08-19T12:36:06;28.60;96.20
24158;DHT22;12316;50.904;4.200;2022-08-19T12:38:33;28.70;96.10
24158;DHT22;12316;50.904;4.200;2022-08-19T12:41:00;28.80;96.00
24158;DHT22;12316;50.904;4.200;2022-08-19T12:43:26;28.90;95.80
24158;DHT22;12316;50.904;4.200;2022-08-19T12:45:52;28.90;95.40
24158;DHT22;12316;50.904;4.200;2022-08-19T12:48:17;28.80;95.50
24158;DHT22;12316;50.904;4.200;2022-08-19T12:50:44;28.90;95.70
24158;DHT22;12316;50.904;4.200;2022-08-19T12:53:14;29.10;95.60
24158;DHT22;12316;50.904;4.200;2022-08-19T12:55:40;29.20;95.20
24158;DHT22;12316;50.904;4.200;2022-08-19T12:58:06;29.10;95.20
24158;DHT22;12316;50.904;4.200;2022-08-19T13:00:32;29.00;95.10
24158;DHT22;12316;50.904;4.200;2022-08-19T13:02:58;28.90;95.10
24158;DHT22;12316;50.904;4.200;2022-08-19T13:05:26;28.80;94.90
24158;DHT22;12316;50.904;4.200;2022-08-19T13:07:53;28.60;94.90
24158;DHT22;12316;50.904;4.200;2022-08-19T13:10:25;28.50;95.10
24158;DHT22;12316;50.904;4.200;2022-08-19T13:12:53;28.50;95.60
24158;DHT22;12316;50.904;4.200;2022-08-19T13:15:19;28.50;95.70
24158;DHT22;12316;50.904;4.200;2022-08-19T13:17:46;28.50;95.60
24158;DHT22;12316;50.904;4.200;2022-08-19T13:20:15;28.40;95.70
24158;DHT22;12316;50.904;4.200;2022-08-19T13:22:41;28.40;95.70
24158;DHT22;12316;50.904;4.200;2022-08-19T13:25:08;28.70;95.70
24158;DHT22;12316;50.904;4.200;2022-08-19T13:27:34;28.80;95.30
24158;DHT22;12316;50.904;4.200;2022-08-19T13:30:01;28.90;95.10
24158;DHT22;12316;50.904;4.200;2022-08-19T13:32:46;29.00;95.00
24158;DHT22;12316;50.904;4.200;2022-08-19T13:35:31;28.80;95.00
24158;DHT22;12316;50.904;4.200;2022-08-19T13:37:57;28.60;95.20
24158;DHT22;12316;50.904;4.200;2022-08-19T13:40:24;28.40;95.30
24158;DHT22;12316;50.904;4.200;2022-08-19T13:42:53;28.40;95.30
24158;DHT22;12316;50.904;4.200;2022-08-19T13:45:22;28.20;95.40
24158;DHT22;12316;50.904;4.200;2022-08-19T13:47:51;28.10;95.50
24158;DHT22;12316;50.904;4.200;2022-08-19T13:50:20;28.00;95.60
24158;DHT22;12316;50.904;4.200;2022-08-19T13:52:46;28.00;95.80
24158;DHT22;12316;50.904;4.200;2022-08-19T13:55:14;27.90;96.10
24158;DHT22;12316;50.904;4.200;2022-08-19T13:57:41;27.70;96.70
24158;DHT22;12316;50.904;4.200;2022-08-19T14:00:13;27.40;97.50
24158;DHT22;12316;50.904;4.200;2022-08-19T14:02:39;27.10;98.60
24158;DHT22;12316;50.904;4.200;2022-08-19T14:05:07;26.90;99.50
24158;DHT22;12316;50.904;4.200;2022-08-19T14:07:33;26.60;99.90
24158;DHT22;12316;50.904;4.200;2022-08-19T14:09:58;26.50;99.90
24158;DHT22;12316;50.904;4.200;2022-08-19T14:12:24;26.40;99.90
24158;DHT22;12316;50.904;4.200;2022-08-19T14:14:50;26.40;99.90
24158;DHT22;12316;50.904;4.200;2022-08-19T14:17:16;26.50;99.90
24158;DHT22;12316;50.904;4.200;2022-08-19T14:19:42;26.50;99.90
24158;DHT22;12316;50.904;4.200;2022-08-19T14:22:08;26.60;99.90
24158;DHT22;12316;50.904;4.200;2022-08-19T14:24:37;26.50;99.90
24158;DHT22;12316;50.904;4.200;2022-08-19T14:27:04;26.60;99.90
24158;DHT22;12316;50.904;4.200;2022-08-19T14:29:29;26.70;99.90
24158;DHT22;12316;50.904;4.200;2022-08-19T14:31:55;26.90;99.90
24158;DHT22;12316;50.904;4.200;2022-08-19T14:34:25;26.90;99.90
24158;DHT22;12316;50.904;4.200;2022-08-19T14:36:51;26.90;99.90
24158;DHT22;12316;50.904;4.200;2022-08-19T14:39:17;26.90;99.90
24158;DHT22;12316;50.904;4.200;2022-08-19T14:41:43;27.10;99.90
24158;DHT22;12316;50.904;4.200;2022-08-19T14:44:10;27.30;99.90
24158;DHT22;12316;50.904;4.200;2022-08-19T14:46:38;27.70;99.90
24158;DHT22;12316;50.904;4.200;2022-08-19T14:49:04;27.90;99.90
24158;DHT22;12316;50.904;4.200;2022-08-19T14:51:30;28.20;99.90
24158;DHT22;12316;50.904;4.200;2022-08-19T14:53:56;28.40;99.90
24158;DHT22;12316;50.904;4.200;2022-08-19T14:56:25;28.50;99.90
24158;DHT22;12316;50.904;4.200;2022-08-19T14:58:51;28.60;99.50
24158;DHT22;12316;50.904;4.200;2022-08-19T15:01:17;28.60;98.80
24158;DHT22;12316;50.904;4.200;2022-08-19T15:03:46;28.40;98.50
24158;DHT22;12316;50.904;4.200;2022-08-19T15:06:12;28.20;98.90
24158;DHT22;12316;50.904;4.200;2022-08-19T15:08:40;28.30;99.10
24158;DHT22;12316;50.904;4.200;2022-08-19T15:11:12;28.20;98.70
24158;DHT22;12316;50.904;4.200;2022-08-19T15:13:40;28.00;98.50
24158;DHT22;12316;50.904;4.200;2022-08-19T15:16:06;27.80;98.70
24158;DHT22;12316;50.904;4.200;2022-08-19T15:18:32;27.70;98.60
24158;DHT22;12316;50.904;4.200;2022-08-19T15:20:58;27.50;98.60
24158;DHT22;12316;50.904;4.200;2022-08-19T15:23:26;27.30;98.90
24158;DHT22;12316;50.904;4.200;2022-08-19T15:25:51;27.10;99.20
24158;DHT22;12316;50.904;4.200;2022-08-19T15:28:21;27.00;99.50
24158;DHT22;12316;50.904;4.200;2022-08-19T15:30:47;26.90;99.70
24158;DHT22;12316;50.904;4.200;2022-08-19T15:33:13;26.90;99.90
24158;DHT22;12316;50.904;4.200;2022-08-19T15:35:43;27.00;99.90
24158;DHT22;12316;50.904;4.200;2022-08-19T15:38:09;27.20;99.90
24158;DHT22;12316;50.904;4.200;2022-08-19T15:40:38;27.10;99.90
24158;DHT22;12316;50.904;4.200;2022-08-19T15:43:05;27.20;99.90
24158;DHT22;12316;50.904;4.200;2022-08-19T15:45:31;27.50;99.90